sensor_id;sensor_type;location;lat;lon;timestamp;P1;durP1;ratioP1;P2;durP2;ratioP2
23702;SDS011;12030;50.376;8.762;2022-08-06T00:00:37;2.83;;;1.17;;
23702;SDS011;12030;50.376;8.762;2022-08-06T00:03:02;3.43;;;1.20;;
23702;SDS011;12030;50.376;8.762;2022-08-06T00:05:28;1.50;;;1.05;;
23702;SDS011;12030;50.376;8.762;2022-08-06T00:07:54;2.88;;;1.10;;
23702;SDS011;12030;50.376;8.762;2022-08-06T00:10:21;1.60;;;0.90;;
23702;SDS011;12030;50.376;8.762;2022-08-06T00:12:47;1.93;;;0.70;;
23702;SDS011;12030;50.376;8.762;2022-08-06T00:15:13;2.00;;;0.90;;
23702;SDS011;12030;50.376;8.762;2022-08-06T00:17:38;3.03;;;1.08;;
23702;SDS011;12030;50.376;8.762;2022-08-06T00:20:07;4.50;;;1.20;;
23702;SDS011;12030;50.376;8.762;2022-08-06T00:22:33;1.58;;;1.00;;
23702;SDS011;12030;50.376;8.762;2022-08-06T00:24:59;1.97;;;1.03;;
23702;SDS011;12030;50.376;8.762;2022-08-06T00:27:25;3.40;;;0.73;;
23702;SDS011;12030;50.376;8.762;2022-08-06T00:29:50;1.43;;;0.63;;
23702;SDS011;12030;50.376;8.762;2022-08-06T00:32:16;2.33;;;0.73;;
23702;SDS011;12030;50.376;8.762;2022-08-06T00:34:41;2.22;;;0.98;;
23702;SDS011;12030;50.376;8.762;2022-08-06T00:37:07;3.10;;;1.08;;
23702;SDS011;12030;50.376;8.762;2022-08-06T00:39:32;1.40;;;0.82;;
23702;SDS011;12030;50.376;8.762;2022-08-06T00:41:58;1.95;;;0.93;;
23702;SDS011;12030;50.376;8.762;2022-08-06T00:44:24;1.73;;;0.90;;
23702;SDS011;12030;50.376;8.762;2022-08-06T00:46:50;1.20;;;0.70;;
23702;SDS011;12030;50.376;8.762;2022-08-06T00:49:16;1.63;;;0.90;;
23702;SDS011;12030;50.376;8.762;2022-08-06T00:51:41;0.80;;;0.80;;
23702;SDS011;12030;50.376;8.762;2022-08-06T00:54:07;4.25;;;1.10;;
23702;SDS011;12030;50.376;8.762;2022-08-06T00:56:33;2.53;;;0.90;;
23702;SDS011;12030;50.376;8.762;2022-08-06T00:58:58;2.58;;;0.93;;
23702;SDS011;12030;50.376;8.762;2022-08-06T01:01:24;2.85;;;0.98;;
23702;SDS011;12030;50.376;8.762;2022-08-06T01:03:50;1.30;;;0.90;;
23702;SDS011;12030;50.376;8.762;2022-08-06T01:06:15;1.77;;;0.80;;
23702;SDS011;12030;50.376;8.762;2022-08-06T01:08:41;2.00;;;0.93;;
23702;SDS011;12030;50.376;8.762;2022-08-06T01:11:06;1.63;;;0.90;;
23702;SDS011;12030;50.376;8.762;2022-08-06T01:13:32;3.60;;;0.80;;
23702;SDS011;12030;50.376;8.762;2022-08-06T01:16:09;2.70;;;0.98;;
23702;SDS011;12030;50.376;8.762;2022-08-06T01:18:45;1.50;;;1.00;;
23702;SDS011;12030;50.376;8.762;2022-08-06T01:23:53;2.33;;;1.08;;
23702;SDS011;12030;50.376;8.762;2022-08-06T01:26:51;1.77;;;0.70;;
23702;SDS011;12030;50.376;8.762;2022-08-06T01:29:22;3.42;;;0.77;;
23702;SDS011;12030;50.376;8.762;2022-08-06T01:31:58;0.87;;;0.70;;
23702;SDS011;12030;50.376;8.762;2022-08-06T01:34:41;2.30;;;0.70;;
23702;SDS011;12030;50.376;8.762;2022-08-06T01:37:29;2.45;;;0.90;;
23702;SDS011;12030;50.376;8.762;2022-08-06T01:40:00;3.33;;;0.82;;
23702;SDS011;12030;50.376;8.762;2022-08-06T01:42:29;1.30;;;0.80;;
23702;SDS011;12030;50.376;8.762;2022-08-06T01:44:56;1.92;;;0.85;;
23702;SDS011;12030;50.376;8.762;2022-08-06T01:47:29;2.25;;;0.82;;
23702;SDS011;12030;50.376;8.762;2022-08-06T01:49:59;1.42;;;0.88;;
23702;SDS011;12030;50.376;8.762;2022-08-06T01:52:36;1.60;;;0.75;;
23702;SDS011;12030;50.376;8.762;2022-08-06T01:55:11;1.33;;;0.90;;
23702;SDS011;12030;50.376;8.762;2022-08-06T01:57:41;3.00;;;0.90;;
23702;SDS011;12030;50.376;8.762;2022-08-06T02:00:11;0.70;;;0.70;;
23702;SDS011;12030;50.376;8.762;2022-08-06T02:02:37;2.17;;;0.88;;
23702;SDS011;12030;50.376;8.762;2022-08-06T02:05:05;1.30;;;0.80;;
23702;SDS011;12030;50.376;8.762;2022-08-06T02:07:33;0.87;;;0.60;;
23702;SDS011;12030;50.376;8.762;2022-08-06T02:10:04;1.43;;;0.60;;
23702;SDS011;12030;50.376;8.762;2022-08-06T02:12:31;1.43;;;0.83;;
23702;SDS011;12030;50.376;8.762;2022-08-06T02:15:00;0.70;;;0.70;;
23702;SDS011;12030;50.376;8.762;2022-08-06T02:17:31;3.60;;;0.70;;
23702;SDS011;12030;50.376;8.762;2022-08-06T02:20:00;2.50;;;0.70;;
23702;SDS011;12030;50.376;8.762;2022-08-06T02:22:28;1.33;;;0.90;;
23702;SDS011;12030;50.376;8.762;2022-08-06T02:24:57;3.50;;;0.70;;
23702;SDS011;12030;50.376;8.762;2022-08-06T02:27:26;2.27;;;0.73;;
23702;SDS011;12030;50.376;8.762;2022-08-06T02:29:53;4.70;;;1.20;;
23702;SDS011;12030;50.376;8.762;2022-08-06T02:32:23;2.63;;;0.73;;
23702;SDS011;12030;50.376;8.762;2022-08-06T02:34:48;1.00;;;0.67;;
23702;SDS011;12030;50.376;8.762;2022-08-06T02:37:20;2.60;;;0.77;;
23702;SDS011;12030;50.376;8.762;2022-08-06T02:39:56;0.80;;;0.80;;
23702;SDS011;12030;50.376;8.762;2022-08-06T02:42:38;3.10;;;1.60;;
23702;SDS011;12030;50.376;8.762;2022-08-06T02:47:42;3.33;;;1.10;;
23702;SDS011;12030;50.376;8.762;2022-08-06T02:50:14;1.23;;;0.90;;
23702;SDS011;12030;50.376;8.762;2022-08-06T02:52:44;4.00;;;0.90;;
23702;SDS011;12030;50.376;8.762;2022-08-06T02:55:17;3.20;;;0.90;;
23702;SDS011;12030;50.376;8.762;2022-08-06T02:57:51;2.00;;;0.80;;
23702;SDS011;12030;50.376;8.762;2022-08-06T03:00:19;1.67;;;0.80;;
23702;SDS011;12030;50.376;8.762;2022-08-06T03:02:47;3.77;;;0.90;;
23702;SDS011;12030;50.376;8.762;2022-08-06T03:05:17;1.73;;;0.77;;
23702;SDS011;12030;50.376;8.762;2022-08-06T03:07:44;2.67;;;0.80;;
23702;SDS011;12030;50.376;8.762;2022-08-06T03:10:13;1.97;;;0.80;;
23702;SDS011;12030;50.376;8.762;2022-08-06T03:12:41;0.93;;;0.67;;
23702;SDS011;12030;50.376;8.762;2022-08-06T03:15:08;1.70;;;0.80;;
23702;SDS011;12030;50.376;8.762;2022-08-06T03:17:35;2.57;;;0.77;;
23702;SDS011;12030;50.376;8.762;2022-08-06T03:20:02;1.93;;;0.90;;
23702;SDS011;12030;50.376;8.762;2022-08-06T03:22:29;1.50;;;0.80;;
23702;SDS011;12030;50.376;8.762;2022-08-06T03:24:57;2.40;;;0.70;;
23702;SDS011;12030;50.376;8.762;2022-08-06T03:27:25;1.67;;;0.80;;
23702;SDS011;12030;50.376;8.762;2022-08-06T03:29:51;0.90;;;0.60;;
23702;SDS011;12030;50.376;8.762;2022-08-06T03:32:18;2.10;;;0.83;;
23702;SDS011;12030;50.376;8.762;2022-08-06T03:34:44;2.53;;;0.97;;
23702;SDS011;12030;50.376;8.762;2022-08-06T03:37:10;1.37;;;0.70;;
23702;SDS011;12030;50.376;8.762;2022-08-06T03:39:38;7.53;;;1.13;;
23702;SDS011;12030;50.376;8.762;2022-08-06T03:42:06;3.43;;;0.63;;
23702;SDS011;12030;50.376;8.762;2022-08-06T03:44:32;2.10;;;0.90;;
23702;SDS011;12030;50.376;8.762;2022-08-06T03:47:00;1.77;;;1.00;;
23702;SDS011;12030;50.376;8.762;2022-08-06T03:49:33;0.60;;;0.60;;
23702;SDS011;12030;50.376;8.762;2022-08-06T03:52:06;1.87;;;0.57;;
23702;SDS011;12030;50.376;8.762;2022-08-06T03:54:35;1.87;;;0.83;;
23702;SDS011;12030;50.376;8.762;2022-08-06T03:57:09;1.67;;;0.90;;
23702;SDS011;12030;50.376;8.762;2022-08-06T03:59:39;2.63;;;0.93;;
23702;SDS011;12030;50.376;8.762;2022-08-06T04:02:10;1.00;;;0.80;;
23702;SDS011;12030;50.376;8.762;2022-08-06T04:04:37;1.00;;;0.80;;
23702;SDS011;12030;50.376;8.762;2022-08-06T04:07:03;1.93;;;0.97;;
23702;SDS011;12030;50.376;8.762;2022-08-06T04:09:31;1.67;;;0.80;;
23702;SDS011;12030;50.376;8.762;2022-08-06T04:11:57;2.47;;;0.80;;
23702;SDS011;12030;50.376;8.762;2022-08-06T04:14:24;1.53;;;0.77;;
23702;SDS011;12030;50.376;8.762;2022-08-06T04:16:50;1.63;;;0.90;;
23702;SDS011;12030;50.376;8.762;2022-08-06T04:19:18;2.10;;;0.80;;
23702;SDS011;12030;50.376;8.762;2022-08-06T04:21:45;2.20;;;0.80;;
23702;SDS011;12030;50.376;8.762;2022-08-06T04:24:11;1.17;;;0.90;;
23702;SDS011;12030;50.376;8.762;2022-08-06T04:26:38;1.10;;;0.90;;
23702;SDS011;12030;50.376;8.762;2022-08-06T04:29:05;3.57;;;1.03;;
23702;SDS011;12030;50.376;8.762;2022-08-06T04:31:33;1.10;;;0.93;;
23702;SDS011;12030;50.376;8.762;2022-08-06T04:34:00;0.80;;;0.80;;
23702;SDS011;12030;50.376;8.762;2022-08-06T04:36:26;1.00;;;0.73;;
23702;SDS011;12030;50.376;8.762;2022-08-06T04:38:53;1.33;;;0.80;;
23702;SDS011;12030;50.376;8.762;2022-08-06T04:41:20;2.27;;;0.80;;
23702;SDS011;12030;50.376;8.762;2022-08-06T04:43:46;1.53;;;0.90;;
23702;SDS011;12030;50.376;8.762;2022-08-06T04:46:12;0.80;;;0.70;;
23702;SDS011;12030;50.376;8.762;2022-08-06T04:48:39;1.57;;;0.70;;
23702;SDS011;12030;50.376;8.762;2022-08-06T04:51:05;1.00;;;0.77;;
23702;SDS011;12030;50.376;8.762;2022-08-06T04:53:37;1.40;;;0.87;;
23702;SDS011;12030;50.376;8.762;2022-08-06T04:56:04;1.00;;;0.63;;
23702;SDS011;12030;50.376;8.762;2022-08-06T04:58:31;3.37;;;0.90;;
23702;SDS011;12030;50.376;8.762;2022-08-06T05:00:57;3.17;;;1.10;;
23702;SDS011;12030;50.376;8.762;2022-08-06T05:03:23;5.40;;;0.83;;
23702;SDS011;12030;50.376;8.762;2022-08-06T05:05:55;2.07;;;0.70;;
23702;SDS011;12030;50.376;8.762;2022-08-06T05:08:23;2.87;;;0.80;;
23702;SDS011;12030;50.376;8.762;2022-08-06T05:10:54;1.10;;;0.83;;
23702;SDS011;12030;50.376;8.762;2022-08-06T05:13:24;1.23;;;0.70;;
23702;SDS011;12030;50.376;8.762;2022-08-06T05:15:56;1.50;;;0.90;;
23702;SDS011;12030;50.376;8.762;2022-08-06T05:18:27;1.90;;;0.90;;
23702;SDS011;12030;50.376;8.762;2022-08-06T05:20:58;1.67;;;0.97;;
23702;SDS011;12030;50.376;8.762;2022-08-06T05:23:42;4.77;;;0.80;;
23702;SDS011;12030;50.376;8.762;2022-08-06T05:26:11;2.50;;;0.87;;
23702;SDS011;12030;50.376;8.762;2022-08-06T05:28:38;1.57;;;0.90;;
23702;SDS011;12030;50.376;8.762;2022-08-06T05:31:04;3.27;;;0.90;;
23702;SDS011;12030;50.376;8.762;2022-08-06T05:33:31;2.40;;;0.97;;
23702;SDS011;12030;50.376;8.762;2022-08-06T05:35:59;1.53;;;0.80;;
23702;SDS011;12030;50.376;8.762;2022-08-06T05:38:26;1.73;;;0.87;;
23702;SDS011;12030;50.376;8.762;2022-08-06T05:40:52;1.40;;;0.70;;
23702;SDS011;12030;50.376;8.762;2022-08-06T05:43:20;1.33;;;0.90;;
23702;SDS011;12030;50.376;8.762;2022-08-06T05:45:46;2.20;;;0.83;;
23702;SDS011;12030;50.376;8.762;2022-08-06T05:48:13;4.33;;;1.00;;
23702;SDS011;12030;50.376;8.762;2022-08-06T05:50:44;1.40;;;0.63;;
23702;SDS011;12030;50.376;8.762;2022-08-06T05:53:15;1.47;;;0.70;;
23702;SDS011;12030;50.376;8.762;2022-08-06T05:58:17;3.33;;;0.77;;
23702;SDS011;12030;50.376;8.762;2022-08-06T06:00:48;1.15;;;0.70;;
23702;SDS011;12030;50.376;8.762;2022-08-06T06:03:16;1.23;;;0.80;;
23702;SDS011;12030;50.376;8.762;2022-08-06T06:05:44;2.20;;;0.90;;
23702;SDS011;12030;50.376;8.762;2022-08-06T06:08:10;2.25;;;0.90;;
23702;SDS011;12030;50.376;8.762;2022-08-06T06:10:36;1.30;;;0.70;;
23702;SDS011;12030;50.376;8.762;2022-08-06T06:13:04;2.38;;;0.90;;
23702;SDS011;12030;50.376;8.762;2022-08-06T06:15:30;3.60;;;0.80;;
23702;SDS011;12030;50.376;8.762;2022-08-06T06:18:12;2.20;;;0.70;;
23702;SDS011;12030;50.376;8.762;2022-08-06T06:21:05;1.40;;;0.70;;
23702;SDS011;12030;50.376;8.762;2022-08-06T06:23:42;1.43;;;0.80;;
23702;SDS011;12030;50.376;8.762;2022-08-06T06:26:28;1.87;;;0.80;;
23702;SDS011;12030;50.376;8.762;2022-08-06T06:40:35;1.30;;;0.53;;
23702;SDS011;12030;50.376;8.762;2022-08-06T06:43:05;1.50;;;0.60;;
23702;SDS011;12030;50.376;8.762;2022-08-06T06:45:42;3.17;;;0.80;;
23702;SDS011;12030;50.376;8.762;2022-08-06T06:48:18;1.80;;;0.70;;
23702;SDS011;12030;50.376;8.762;2022-08-06T06:50:50;1.80;;;0.60;;
23702;SDS011;12030;50.376;8.762;2022-08-06T06:53:19;2.58;;;0.63;;
23702;SDS011;12030;50.376;8.762;2022-08-06T06:55:49;3.45;;;0.60;;
23702;SDS011;12030;50.376;8.762;2022-08-06T06:58:23;1.30;;;0.60;;
23702;SDS011;12030;50.376;8.762;2022-08-06T07:00:57;1.23;;;0.55;;
23702;SDS011;12030;50.376;8.762;2022-08-06T07:03:24;4.07;;;0.70;;
23702;SDS011;12030;50.376;8.762;2022-08-06T07:05:52;2.15;;;0.65;;
23702;SDS011;12030;50.376;8.762;2022-08-06T07:08:19;3.53;;;0.93;;
23702;SDS011;12030;50.376;8.762;2022-08-06T07:10:46;1.83;;;0.60;;
23702;SDS011;12030;50.376;8.762;2022-08-06T07:13:13;2.30;;;0.60;;
23702;SDS011;12030;50.376;8.762;2022-08-06T07:15:40;3.03;;;0.70;;
23702;SDS011;12030;50.376;8.762;2022-08-06T07:18:07;3.13;;;0.50;;
23702;SDS011;12030;50.376;8.762;2022-08-06T07:20:33;1.50;;;0.60;;
23702;SDS011;12030;50.376;8.762;2022-08-06T07:23:01;2.57;;;0.57;;
23702;SDS011;12030;50.376;8.762;2022-08-06T07:25:28;1.08;;;0.50;;
23702;SDS011;12030;50.376;8.762;2022-08-06T07:27:54;1.98;;;0.50;;
23702;SDS011;12030;50.376;8.762;2022-08-06T07:30:20;2.15;;;0.50;;
23702;SDS011;12030;50.376;8.762;2022-08-06T07:32:47;2.53;;;0.50;;
23702;SDS011;12030;50.376;8.762;2022-08-06T07:35:15;1.90;;;0.47;;
23702;SDS011;12030;50.376;8.762;2022-08-06T07:37:59;2.00;;;0.43;;
23702;SDS011;12030;50.376;8.762;2022-08-06T07:40:27;1.92;;;0.57;;
23702;SDS011;12030;50.376;8.762;2022-08-06T07:42:54;2.97;;;0.60;;
23702;SDS011;12030;50.376;8.762;2022-08-06T07:45:25;2.10;;;0.40;;
23702;SDS011;12030;50.376;8.762;2022-08-06T07:47:54;1.30;;;0.50;;
23702;SDS011;12030;50.376;8.762;2022-08-06T07:50:23;3.05;;;0.55;;
23702;SDS011;12030;50.376;8.762;2022-08-06T07:52:52;2.72;;;0.70;;
23702;SDS011;12030;50.376;8.762;2022-08-06T07:55:20;1.30;;;0.55;;
23702;SDS011;12030;50.376;8.762;2022-08-06T07:57:49;2.15;;;0.43;;
23702;SDS011;12030;50.376;8.762;2022-08-06T08:00:17;2.17;;;0.90;;
23702;SDS011;12030;50.376;8.762;2022-08-06T08:02:43;4.18;;;0.70;;
23702;SDS011;12030;50.376;8.762;2022-08-06T08:05:30;2.92;;;0.57;;
23702;SDS011;12030;50.376;8.762;2022-08-06T08:08:14;1.63;;;0.63;;
23702;SDS011;12030;50.376;8.762;2022-08-06T08:10:40;1.80;;;0.70;;
23702;SDS011;12030;50.376;8.762;2022-08-06T08:13:07;2.28;;;0.50;;
23702;SDS011;12030;50.376;8.762;2022-08-06T08:15:34;2.93;;;0.60;;
23702;SDS011;12030;50.376;8.762;2022-08-06T08:17:59;1.42;;;0.40;;
23702;SDS011;12030;50.376;8.762;2022-08-06T08:20:26;3.20;;;0.60;;
23702;SDS011;12030;50.376;8.762;2022-08-06T08:22:53;2.17;;;0.60;;
23702;SDS011;12030;50.376;8.762;2022-08-06T08:25:19;1.90;;;0.60;;
23702;SDS011;12030;50.376;8.762;2022-08-06T08:27:44;2.15;;;0.63;;
23702;SDS011;12030;50.376;8.762;2022-08-06T08:30:10;2.83;;;0.63;;
23702;SDS011;12030;50.376;8.762;2022-08-06T08:32:36;2.38;;;0.60;;
23702;SDS011;12030;50.376;8.762;2022-08-06T08:35:01;1.73;;;0.70;;
23702;SDS011;12030;50.376;8.762;2022-08-06T08:37:28;1.95;;;0.57;;
23702;SDS011;12030;50.376;8.762;2022-08-06T08:39:53;2.80;;;0.52;;
23702;SDS011;12030;50.376;8.762;2022-08-06T08:42:19;2.25;;;0.73;;
23702;SDS011;12030;50.376;8.762;2022-08-06T08:44:53;0.70;;;0.40;;
23702;SDS011;12030;50.376;8.762;2022-08-06T08:47:21;1.58;;;0.43;;
23702;SDS011;12030;50.376;8.762;2022-08-06T08:49:47;0.93;;;0.40;;
23702;SDS011;12030;50.376;8.762;2022-08-06T08:52:18;1.60;;;0.50;;
23702;SDS011;12030;50.376;8.762;2022-08-06T08:54:50;1.48;;;0.30;;
23702;SDS011;12030;50.376;8.762;2022-08-06T08:57:19;1.50;;;0.70;;
23702;SDS011;12030;50.376;8.762;2022-08-06T08:59:47;1.35;;;0.40;;
23702;SDS011;12030;50.376;8.762;2022-08-06T09:02:13;2.10;;;0.40;;
23702;SDS011;12030;50.376;8.762;2022-08-06T09:04:40;3.90;;;0.60;;
23702;SDS011;12030;50.376;8.762;2022-08-06T09:07:07;1.17;;;0.45;;
23702;SDS011;12030;50.376;8.762;2022-08-06T09:09:34;2.28;;;0.50;;
23702;SDS011;12030;50.376;8.762;2022-08-06T09:12:02;3.88;;;0.57;;
23702;SDS011;12030;50.376;8.762;2022-08-06T09:14:28;1.60;;;0.28;;
23702;SDS011;12030;50.376;8.762;2022-08-06T09:16:54;2.90;;;0.50;;
23702;SDS011;12030;50.376;8.762;2022-08-06T09:19:22;2.28;;;0.63;;
23702;SDS011;12030;50.376;8.762;2022-08-06T09:21:47;1.63;;;0.50;;
23702;SDS011;12030;50.376;8.762;2022-08-06T09:24:13;2.03;;;0.50;;
23702;SDS011;12030;50.376;8.762;2022-08-06T09:26:41;1.25;;;0.40;;
23702;SDS011;12030;50.376;8.762;2022-08-06T09:29:54;2.17;;;0.37;;
23702;SDS011;12030;50.376;8.762;2022-08-06T09:37:41;2.28;;;0.47;;
23702;SDS011;12030;50.376;8.762;2022-08-06T09:40:13;1.55;;;0.40;;
23702;SDS011;12030;50.376;8.762;2022-08-06T09:42:41;1.10;;;0.40;;
23702;SDS011;12030;50.376;8.762;2022-08-06T09:45:09;1.00;;;0.40;;
23702;SDS011;12030;50.376;8.762;2022-08-06T09:47:36;0.98;;;0.35;;
23702;SDS011;12030;50.376;8.762;2022-08-06T09:50:04;2.80;;;0.30;;
23702;SDS011;12030;50.376;8.762;2022-08-06T09:52:30;2.40;;;0.50;;
23702;SDS011;12030;50.376;8.762;2022-08-06T09:54:56;1.00;;;0.40;;
23702;SDS011;12030;50.376;8.762;2022-08-06T09:57:22;2.03;;;0.30;;
23702;SDS011;12030;50.376;8.762;2022-08-06T09:59:49;2.60;;;0.50;;
23702;SDS011;12030;50.376;8.762;2022-08-06T10:02:15;1.40;;;0.50;;
23702;SDS011;12030;50.376;8.762;2022-08-06T10:04:43;1.30;;;0.40;;
23702;SDS011;12030;50.376;8.762;2022-08-06T10:07:10;1.52;;;0.52;;
23702;SDS011;12030;50.376;8.762;2022-08-06T10:09:36;2.15;;;0.43;;
23702;SDS011;12030;50.376;8.762;2022-08-06T10:12:19;1.38;;;0.30;;
23702;SDS011;12030;50.376;8.762;2022-08-06T10:14:45;1.10;;;0.40;;
23702;SDS011;12030;50.376;8.762;2022-08-06T10:19:41;1.13;;;0.40;;
23702;SDS011;12030;50.376;8.762;2022-08-06T10:22:12;2.50;;;0.38;;
23702;SDS011;12030;50.376;8.762;2022-08-06T10:24:45;1.92;;;0.40;;
23702;SDS011;12030;50.376;8.762;2022-08-06T10:27:14;1.20;;;0.50;;
23702;SDS011;12030;50.376;8.762;2022-08-06T10:29:53;1.85;;;0.38;;
23702;SDS011;12030;50.376;8.762;2022-08-06T10:32:23;2.30;;;0.40;;
23702;SDS011;12030;50.376;8.762;2022-08-06T10:34:53;1.03;;;0.30;;
23702;SDS011;12030;50.376;8.762;2022-08-06T10:37:20;1.80;;;0.50;;
23702;SDS011;12030;50.376;8.762;2022-08-06T10:39:47;1.35;;;0.30;;
23702;SDS011;12030;50.376;8.762;2022-08-06T10:42:24;1.17;;;0.40;;
23702;SDS011;12030;50.376;8.762;2022-08-06T10:44:50;1.33;;;0.30;;
23702;SDS011;12030;50.376;8.762;2022-08-06T10:47:17;1.17;;;0.30;;
23702;SDS011;12030;50.376;8.762;2022-08-06T10:49:43;1.20;;;0.30;;
23702;SDS011;12030;50.376;8.762;2022-08-06T10:52:10;2.53;;;0.40;;
23702;SDS011;12030;50.376;8.762;2022-08-06T10:54:37;2.38;;;0.60;;
23702;SDS011;12030;50.376;8.762;2022-08-06T10:57:04;2.53;;;0.80;;
23702;SDS011;12030;50.376;8.762;2022-08-06T10:59:32;2.60;;;0.40;;
23702;SDS011;12030;50.376;8.762;2022-08-06T11:02:05;2.35;;;0.43;;
23702;SDS011;12030;50.376;8.762;2022-08-06T11:04:34;2.20;;;0.40;;
23702;SDS011;12030;50.376;8.762;2022-08-06T11:10:02;1.65;;;0.35;;
23702;SDS011;12030;50.376;8.762;2022-08-06T11:12:45;1.60;;;0.30;;
23702;SDS011;12030;50.376;8.762;2022-08-06T11:15:15;1.43;;;0.83;;
23702;SDS011;12030;50.376;8.762;2022-08-06T11:17:48;0.93;;;0.32;;
23702;SDS011;12030;50.376;8.762;2022-08-06T11:23:05;1.13;;;0.43;;
23702;SDS011;12030;50.376;8.762;2022-08-06T11:28:16;3.15;;;0.75;;
23702;SDS011;12030;50.376;8.762;2022-08-06T11:33:58;1.77;;;0.30;;
23702;SDS011;12030;50.376;8.762;2022-08-06T11:35:58;1.30;;;0.40;;
23702;SDS011;12030;50.376;8.762;2022-08-06T11:49:10;0.55;;;0.30;;
23702;SDS011;12030;50.376;8.762;2022-08-06T11:59:26;1.70;;;0.45;;
23702;SDS011;12030;50.376;8.762;2022-08-06T12:01:53;0.32;;;0.30;;
23702;SDS011;12030;50.376;8.762;2022-08-06T12:04:51;0.90;;;0.40;;
23702;SDS011;12030;50.376;8.762;2022-08-06T12:07:22;2.72;;;0.50;;
23702;SDS011;12030;50.376;8.762;2022-08-06T12:10:02;2.00;;;0.30;;
23702;SDS011;12030;50.376;8.762;2022-08-06T12:17:56;2.97;;;0.25;;
23702;SDS011;12030;50.376;8.762;2022-08-06T12:22:59;2.60;;;0.28;;
23702;SDS011;12030;50.376;8.762;2022-08-06T12:25:47;0.90;;;0.30;;
23702;SDS011;12030;50.376;8.762;2022-08-06T12:28:15;1.02;;;0.38;;
23702;SDS011;12030;50.376;8.762;2022-08-06T12:30:43;1.17;;;0.20;;
23702;SDS011;12030;50.376;8.762;2022-08-06T12:33:09;1.20;;;0.20;;
23702;SDS011;12030;50.376;8.762;2022-08-06T12:35:36;1.27;;;0.30;;
23702;SDS011;12030;50.376;8.762;2022-08-06T12:38:12;1.00;;;0.40;;
23702;SDS011;12030;50.376;8.762;2022-08-06T12:40:38;1.15;;;0.20;;
23702;SDS011;12030;50.376;8.762;2022-08-06T12:45:31;0.70;;;0.25;;
23702;SDS011;12030;50.376;8.762;2022-08-06T12:48:01;0.93;;;0.30;;
23702;SDS011;12030;50.376;8.762;2022-08-06T12:50:33;1.43;;;0.70;;
23702;SDS011;12030;50.376;8.762;2022-08-06T12:53:08;1.05;;;0.45;;
23702;SDS011;12030;50.376;8.762;2022-08-06T12:55:45;2.70;;;0.40;;
23702;SDS011;12030;50.376;8.762;2022-08-06T12:58:19;0.47;;;0.20;;
23702;SDS011;12030;50.376;8.762;2022-08-06T13:00:56;0.80;;;0.20;;
23702;SDS011;12030;50.376;8.762;2022-08-06T13:03:24;3.20;;;0.30;;
23702;SDS011;12030;50.376;8.762;2022-08-06T13:05:52;0.60;;;0.30;;
23702;SDS011;12030;50.376;8.762;2022-08-06T13:08:19;2.80;;;0.30;;
23702;SDS011;12030;50.376;8.762;2022-08-06T13:10:49;0.70;;;0.30;;
23702;SDS011;12030;50.376;8.762;2022-08-06T13:13:16;0.80;;;0.25;;
23702;SDS011;12030;50.376;8.762;2022-08-06T13:15:42;1.95;;;0.30;;
23702;SDS011;12030;50.376;8.762;2022-08-06T13:18:11;0.50;;;0.20;;
23702;SDS011;12030;50.376;8.762;2022-08-06T13:20:40;1.37;;;0.20;;
23702;SDS011;12030;50.376;8.762;2022-08-06T13:23:08;0.50;;;0.25;;
23702;SDS011;12030;50.376;8.762;2022-08-06T13:25:42;0.40;;;0.20;;
23702;SDS011;12030;50.376;8.762;2022-08-06T13:28:12;0.65;;;0.20;;
23702;SDS011;12030;50.376;8.762;2022-08-06T13:30:40;0.95;;;0.30;;
23702;SDS011;12030;50.376;8.762;2022-08-06T13:33:14;0.60;;;0.20;;
23702;SDS011;12030;50.376;8.762;2022-08-06T13:35:42;1.10;;;0.40;;
23702;SDS011;12030;50.376;8.762;2022-08-06T13:38:33;0.77;;;0.20;;
23702;SDS011;12030;50.376;8.762;2022-08-06T13:40:58;0.70;;;0.30;;
23702;SDS011;12030;50.376;8.762;2022-08-06T13:43:37;0.30;;;0.17;;
23702;SDS011;12030;50.376;8.762;2022-08-06T13:46:04;0.80;;;0.20;;
23702;SDS011;12030;50.376;8.762;2022-08-06T13:48:30;0.57;;;0.25;;
23702;SDS011;12030;50.376;8.762;2022-08-06T13:50:56;1.80;;;0.50;;
23702;SDS011;12030;50.376;8.762;2022-08-06T13:53:21;1.50;;;0.80;;
23702;SDS011;12030;50.376;8.762;2022-08-06T13:55:47;1.40;;;0.30;;
23702;SDS011;12030;50.376;8.762;2022-08-06T13:58:13;0.90;;;0.30;;
23702;SDS011;12030;50.376;8.762;2022-08-06T14:00:39;0.30;;;0.20;;
23702;SDS011;12030;50.376;8.762;2022-08-06T14:03:06;0.63;;;0.30;;
23702;SDS011;12030;50.376;8.762;2022-08-06T14:05:32;1.40;;;0.28;;
23702;SDS011;12030;50.376;8.762;2022-08-06T14:07:57;0.87;;;0.23;;
23702;SDS011;12030;50.376;8.762;2022-08-06T14:10:23;1.30;;;0.30;;
23702;SDS011;12030;50.376;8.762;2022-08-06T14:12:48;0.70;;;0.22;;
23702;SDS011;12030;50.376;8.762;2022-08-06T14:15:32;1.50;;;0.38;;
23702;SDS011;12030;50.376;8.762;2022-08-06T14:17:59;1.73;;;0.30;;
23702;SDS011;12030;50.376;8.762;2022-08-06T14:20:24;2.30;;;0.35;;
23702;SDS011;12030;50.376;8.762;2022-08-06T14:22:51;0.52;;;0.20;;
23702;SDS011;12030;50.376;8.762;2022-08-06T14:25:17;1.10;;;0.30;;
23702;SDS011;12030;50.376;8.762;2022-08-06T14:27:43;0.80;;;0.20;;
23702;SDS011;12030;50.376;8.762;2022-08-06T14:30:08;0.90;;;0.20;;
23702;SDS011;12030;50.376;8.762;2022-08-06T14:32:34;2.45;;;0.30;;
23702;SDS011;12030;50.376;8.762;2022-08-06T14:35:00;1.50;;;0.30;;
23702;SDS011;12030;50.376;8.762;2022-08-06T14:37:25;0.50;;;0.30;;
23702;SDS011;12030;50.376;8.762;2022-08-06T14:39:51;1.58;;;0.40;;
23702;SDS011;12030;50.376;8.762;2022-08-06T14:42:16;1.30;;;0.30;;
23702;SDS011;12030;50.376;8.762;2022-08-06T14:45:00;1.02;;;0.30;;
23702;SDS011;12030;50.376;8.762;2022-08-06T14:47:30;0.30;;;0.10;;
23702;SDS011;12030;50.376;8.762;2022-08-06T14:49:57;1.55;;;0.25;;
23702;SDS011;12030;50.376;8.762;2022-08-06T14:52:22;1.43;;;0.30;;
23702;SDS011;12030;50.376;8.762;2022-08-06T14:54:52;1.70;;;0.28;;
23702;SDS011;12030;50.376;8.762;2022-08-06T14:57:36;2.30;;;0.32;;
23702;SDS011;12030;50.376;8.762;2022-08-06T15:00:04;1.30;;;0.30;;
23702;SDS011;12030;50.376;8.762;2022-08-06T15:02:32;1.83;;;0.20;;
23702;SDS011;12030;50.376;8.762;2022-08-06T15:04:58;1.30;;;0.30;;
23702;SDS011;12030;50.376;8.762;2022-08-06T15:07:24;1.23;;;0.30;;
23702;SDS011;12030;50.376;8.762;2022-08-06T15:09:50;0.75;;;0.30;;
23702;SDS011;12030;50.376;8.762;2022-08-06T15:12:16;0.77;;;0.30;;
23702;SDS011;12030;50.376;8.762;2022-08-06T15:14:42;0.97;;;0.27;;
23702;SDS011;12030;50.376;8.762;2022-08-06T15:17:08;1.10;;;0.25;;
23702;SDS011;12030;50.376;8.762;2022-08-06T15:19:34;0.73;;;0.30;;
23702;SDS011;12030;50.376;8.762;2022-08-06T15:21:59;0.40;;;0.20;;
23702;SDS011;12030;50.376;8.762;2022-08-06T15:24:25;0.88;;;0.28;;
23702;SDS011;12030;50.376;8.762;2022-08-06T15:26:52;0.65;;;0.20;;
23702;SDS011;12030;50.376;8.762;2022-08-06T15:29:19;1.10;;;0.30;;
23702;SDS011;12030;50.376;8.762;2022-08-06T15:31:45;0.85;;;0.20;;
23702;SDS011;12030;50.376;8.762;2022-08-06T15:34:12;0.70;;;0.20;;
23702;SDS011;12030;50.376;8.762;2022-08-06T15:36:38;0.60;;;0.20;;
23702;SDS011;12030;50.376;8.762;2022-08-06T15:39:04;0.55;;;0.20;;
23702;SDS011;12030;50.376;8.762;2022-08-06T15:41:30;0.75;;;0.20;;
23702;SDS011;12030;50.376;8.762;2022-08-06T15:43:56;1.70;;;0.70;;
23702;SDS011;12030;50.376;8.762;2022-08-06T15:46:22;1.23;;;0.20;;
23702;SDS011;12030;50.376;8.762;2022-08-06T15:48:47;0.90;;;0.30;;
23702;SDS011;12030;50.376;8.762;2022-08-06T15:51:13;0.37;;;0.20;;
23702;SDS011;12030;50.376;8.762;2022-08-06T15:53:39;0.40;;;0.10;;
23702;SDS011;12030;50.376;8.762;2022-08-06T15:56:05;1.23;;;0.30;;
23702;SDS011;12030;50.376;8.762;2022-08-06T15:58:30;0.95;;;0.30;;
23702;SDS011;12030;50.376;8.762;2022-08-06T16:00:56;0.73;;;0.20;;
23702;SDS011;12030;50.376;8.762;2022-08-06T16:03:22;1.10;;;0.20;;
23702;SDS011;12030;50.376;8.762;2022-08-06T16:05:48;1.00;;;0.30;;